createdAt,value
2023-04-02T00:02:26.033Z,11.48
2023-04-02T00:05:21.226Z,11.49
2023-04-02T00:07:57.648Z,11.49
2023-04-02T00:09:23.204Z,11.37
2023-04-02T00:11:56.965Z,11.47
2023-04-02T00:14:35.747Z,11.43
2023-04-02T00:17:06.277Z,11.46
2023-04-02T00:19:56.229Z,11.48
2023-04-02T00:22:33.142Z,11.45
2023-04-02T00:25:02.282Z,11.48
2023-04-02T00:27:44.748Z,11.53
2023-04-02T00:31:52.289Z,11.55
2023-04-02T00:35:43.401Z,11.58
2023-04-02T00:39:39.109Z,11.55
2023-04-02T00:42:07.346Z,11.56
2023-04-02T00:44:37.269Z,11.62
2023-04-02T00:45:51.322Z,11.51
2023-04-02T00:47:05.556Z,11.51
2023-04-02T00:49:42.211Z,11.66
2023-04-02T00:50:54.075Z,11.54
2023-04-02T00:53:27.537Z,11.67
2023-04-02T00:57:37.574Z,11.67
2023-04-02T01:00:22.114Z,11.68
2023-04-02T01:04:36.189Z,11.63
2023-04-02T01:07:10.134Z,11.67
2023-04-02T01:10:04.374Z,11.64
2023-04-02T01:13:06.017Z,11.72
2023-04-02T01:16:18.559Z,11.76
2023-04-02T01:17:50.830Z,11.65
2023-04-02T01:20:48.155Z,11.73
2023-04-02T01:23:22.578Z,11.79
2023-04-02T01:26:11.833Z,11.82
2023-04-02T01:30:18.729Z,11.74
2023-04-02T01:32:46.104Z,11.76
2023-04-02T01:35:11.743Z,11.74
2023-04-02T01:38:10.658Z,11.79
2023-04-02T01:42:31.891Z,11.70
2023-04-02T01:43:55.474Z,11.61
2023-04-02T01:46:29.920Z,11.76
2023-04-02T01:48:57.141Z,11.78
2023-04-02T01:50:15.399Z,11.68
2023-04-02T01:51:33.262Z,11.66
2023-04-02T01:54:06.236Z,11.80
2023-04-02T01:56:37.951Z,11.81
2023-04-02T01:59:10.520Z,11.84
2023-04-02T02:00:23.419Z,11.74
2023-04-02T02:01:52.553Z,11.74
2023-04-02T02:04:19.428Z,11.78
2023-04-02T02:06:47.212Z,11.70
2023-04-02T02:10:42.513Z,11.65
2023-04-02T02:13:12.328Z,11.67
2023-04-02T02:14:27.875Z,11.54
2023-04-02T02:16:57.193Z,11.56
2023-04-02T02:19:35.914Z,11.59
2023-04-02T02:23:24.145Z,11.51
2023-04-02T02:24:36.631Z,11.40
2023-04-02T02:25:48.072Z,11.44
2023-04-02T02:28:33.607Z,11.57
2023-04-02T02:31:18.274Z,11.55
2023-04-02T02:33:53.212Z,11.50
2023-04-02T02:36:31.146Z,11.50
2023-04-02T02:39:39.392Z,11.53
2023-04-02T02:42:14.366Z,11.52
2023-04-02T02:46:03.401Z,11.47
2023-04-02T02:47:18.970Z,11.34
2023-04-02T02:49:55.769Z,11.46
2023-04-02T02:52:34.588Z,11.43
2023-04-02T02:56:36.527Z,11.38
2023-04-02T02:59:08.571Z,11.33
2023-04-02T03:01:38.781Z,11.37
2023-04-02T03:02:49.721Z,11.29
2023-04-02T03:05:21.917Z,11.40
2023-04-02T03:06:32.262Z,11.29
2023-04-02T03:07:41.825Z,11.25
2023-04-02T03:11:39.752Z,11.40
2023-04-02T03:14:16.563Z,11.38
2023-04-02T03:16:53.853Z,11.38
2023-04-02T03:18:13.566Z,11.23
2023-04-02T03:21:22.242Z,11.33
2023-04-02T03:24:06.630Z,11.34
2023-04-02T03:26:55.892Z,11.36
2023-04-02T03:29:33.871Z,11.41
2023-04-02T03:33:28.441Z,11.38
2023-04-02T03:36:38.960Z,11.35
2023-04-02T03:37:59.743Z,11.28
2023-04-02T03:40:56.769Z,11.31
2023-04-02T03:43:44.225Z,11.26
2023-04-02T03:48:01.059Z,11.35
2023-04-02T03:50:42.802Z,11.35
2023-04-02T03:53:29.277Z,11.37
2023-04-02T03:54:41.305Z,11.21
2023-04-02T03:55:54.015Z,11.19
2023-04-02T03:57:03.511Z,11.18
2023-04-02T03:58:26.297Z,11.15
2023-04-02T04:01:05.325Z,11.20
2023-04-02T04:02:36.918Z,11.11
2023-04-02T04:05:20.440Z,11.18
2023-04-02T04:06:33.333Z,11.07
2023-04-02T04:07:45.182Z,11.05
2023-04-02T04:10:23.101Z,11.17
2023-04-02T04:12:56.999Z,11.23
2023-04-02T04:14:27.851Z,11.15
2023-04-02T04:17:09.113Z,11.20
2023-04-02T04:20:02.161Z,11.26
2023-04-02T04:22:40.767Z,11.31
2023-04-02T04:25:29.314Z,11.29
2023-04-02T04:28:27.374Z,11.30
2023-04-02T04:31:40.222Z,11.26
2023-04-02T04:34:21.111Z,11.28
2023-04-02T04:36:55.944Z,11.26
2023-04-02T04:39:46.673Z,11.26
2023-04-02T04:41:04.668Z,11.15
2023-04-02T04:43:50.757Z,11.19
2023-04-02T04:46:37.563Z,11.21
2023-04-02T04:49:23.449Z,11.22
2023-04-02T04:52:00.320Z,11.31
2023-04-02T04:54:36.843Z,11.33
2023-04-02T04:55:50.024Z,11.25
2023-04-02T04:58:23.468Z,11.42
2023-04-02T05:02:30.078Z,11.35
2023-04-02T05:05:04.522Z,11.35
2023-04-02T05:07:52.897Z,11.28
2023-04-02T05:12:05.522Z,11.29
2023-04-02T05:14:44.055Z,11.29
2023-04-02T05:17:29.464Z,11.26
2023-04-02T05:20:15.847Z,11.33
2023-04-02T05:21:52.245Z,11.27
2023-04-02T05:23:08.478Z,11.34
2023-04-02T05:26:18.497Z,11.52
2023-04-02T05:32:22.676Z,11.53
2023-04-02T05:33:35.264Z,11.42
2023-04-02T05:34:49.531Z,11.41
2023-04-02T05:36:07.872Z,11.40
2023-04-02T05:37:22.423Z,11.40
2023-04-02T05:39:58.134Z,11.44
2023-04-02T05:42:38.313Z,11.50
2023-04-02T05:43:51.674Z,11.39
2023-04-02T05:46:54.941Z,11.54
2023-04-02T05:51:19.641Z,11.55
2023-04-02T05:52:32.589Z,11.48
2023-04-02T05:55:19.457Z,11.60
2023-04-02T05:58:13.486Z,11.59
2023-04-02T06:00:45.571Z,11.55
2023-04-02T06:02:31.206Z,11.47
2023-04-02T06:05:16.456Z,11.59
2023-04-02T06:08:01.861Z,11.51
2023-04-02T06:11:01.336Z,11.46
2023-04-02T06:13:45.990Z,11.50
2023-04-02T06:16:15.543Z,11.46
2023-04-02T06:17:32.738Z,11.31
2023-04-02T06:20:02.670Z,11.44
2023-04-02T06:21:16.907Z,11.37
2023-04-02T06:24:06.746Z,11.46
2023-04-02T06:26:42.880Z,11.43
2023-04-02T06:29:36.076Z,11.43
2023-04-02T06:32:03.791Z,11.47
2023-04-02T06:33:16.251Z,11.43
2023-04-02T06:35:46.416Z,11.52
2023-04-02T06:37:01.158Z,11.34
2023-04-02T06:39:39.426Z,11.54
2023-04-02T06:43:42.427Z,11.38
2023-04-02T06:48:01.304Z,11.18
2023-04-02T06:52:13.489Z,11.34
2023-04-02T06:54:42.871Z,11.42
2023-04-02T06:57:14.762Z,11.40
2023-04-02T06:59:41.948Z,11.43
2023-04-02T07:02:25.150Z,11.43
2023-04-02T07:03:37.309Z,11.30
2023-04-02T07:04:49.157Z,11.32
2023-04-02T07:07:16.125Z,11.46
2023-04-02T07:09:41.860Z,11.40
2023-04-02T07:10:52.891Z,11.36
2023-04-02T07:12:02.513Z,11.36
2023-04-02T07:13:22.444Z,11.37
2023-04-02T07:14:32.802Z,11.37
2023-04-02T07:16:57.224Z,11.53
2023-04-02T07:19:23.624Z,11.54
2023-04-02T07:21:56.488Z,11.57
2023-04-02T07:24:24.953Z,11.55
2023-04-02T07:25:34.192Z,11.40
2023-04-02T07:26:43.734Z,11.43
2023-04-02T07:27:54.084Z,11.42
2023-04-02T07:29:04.099Z,11.41
2023-04-02T07:30:13.553Z,11.42
2023-04-02T07:31:29.394Z,11.39
2023-04-02T07:32:38.088Z,11.37
2023-04-02T07:35:03.366Z,11.45
2023-04-02T07:37:31.333Z,11.51
2023-04-02T07:39:56.117Z,11.53
2023-04-02T07:42:22.308Z,11.40
2023-04-02T07:44:46.691Z,11.44
2023-04-02T07:47:11.019Z,11.46
2023-04-02T07:49:34.706Z,11.41
2023-04-02T07:50:44.820Z,11.33
2023-04-02T07:51:54.889Z,11.33
2023-04-02T07:54:20.434Z,11.46
2023-04-02T07:56:44.220Z,11.42
2023-04-02T07:59:11.561Z,11.48
2023-04-02T08:01:39.370Z,11.54
2023-04-02T08:04:07.252Z,11.62
2023-04-02T08:06:32.619Z,11.60
2023-04-02T08:08:58.306Z,11.61
2023-04-02T08:11:25.561Z,11.65
2023-04-02T08:12:35.441Z,11.56
2023-04-02T08:13:45.446Z,11.59
2023-04-02T08:14:55.199Z,11.54
2023-04-02T08:17:21.748Z,11.60
2023-04-02T08:19:54.823Z,11.51
2023-04-02T08:22:14.770Z,11.60
2023-04-02T08:23:24.084Z,11.49
2023-04-02T08:24:33.371Z,11.47
2023-04-02T08:26:59.154Z,11.60
2023-04-02T08:28:07.943Z,11.48
2023-04-02T08:30:32.388Z,11.56
2023-04-02T08:31:42.313Z,11.47
2023-04-02T08:34:08.575Z,11.57
2023-04-02T08:36:37.528Z,11.60
2023-04-02T08:39:05.873Z,11.67
2023-04-02T08:41:38.248Z,11.68
2023-04-02T08:44:18.532Z,11.64
2023-04-02T08:47:07.156Z,11.65
2023-04-02T08:49:48.744Z,11.66
2023-04-02T08:52:28.926Z,11.61
2023-04-02T08:53:42.465Z,11.52
2023-04-02T08:57:43.870Z,11.57
2023-04-02T09:00:42.865Z,11.53
2023-04-02T09:03:55.883Z,11.46
2023-04-02T09:06:27.750Z,11.46
2023-04-02T09:08:53.948Z,11.47
2023-04-02T09:10:04.978Z,11.38
2023-04-02T09:12:52.973Z,11.44
2023-04-02T09:14:06.338Z,11.26
2023-04-02T09:16:45.673Z,11.34
2023-04-02T09:19:21.313Z,11.29
2023-04-02T09:23:06.391Z,11.32
2023-04-02T09:25:32.120Z,11.40
2023-04-02T09:27:59.332Z,11.45
2023-04-02T09:30:48.967Z,11.42
2023-04-02T09:33:53.478Z,11.47
2023-04-02T09:36:38.036Z,11.43
2023-04-02T09:39:08.117Z,11.50
2023-04-02T09:41:48.175Z,11.52
2023-04-02T09:44:31.616Z,11.48
2023-04-02T09:47:09.024Z,11.51
2023-04-02T09:49:55.027Z,11.45
2023-04-02T09:52:32.539Z,11.35
2023-04-02T09:55:17.243Z,11.43
2023-04-02T09:57:44.272Z,11.52
2023-04-02T10:00:32.491Z,11.59
2023-04-02T10:03:29.382Z,11.63
2023-04-02T10:06:12.485Z,11.68
2023-04-02T10:07:43.910Z,11.57
2023-04-02T10:08:53.441Z,11.56
2023-04-02T10:11:46.255Z,11.65
2023-04-02T10:14:20.938Z,11.68
2023-04-02T10:15:40.987Z,11.61
2023-04-02T10:18:16.580Z,11.74
2023-04-02T10:19:38.899Z,11.59
2023-04-02T10:22:28.673Z,11.65
2023-04-02T10:23:38.785Z,11.59
2023-04-02T10:24:49.058Z,11.57
2023-04-02T10:26:07.946Z,11.56
2023-04-02T10:27:25.523Z,11.55
2023-04-02T10:30:19.721Z,11.64
2023-04-02T10:33:12.349Z,11.55
2023-04-02T10:42:00.056Z,11.53
2023-04-02T10:44:47.439Z,11.60
2023-04-02T10:47:32.750Z,11.65
2023-04-02T10:50:51.249Z,11.71
2023-04-02T10:52:05.688Z,11.60
2023-04-02T10:56:47.984Z,11.88
2023-04-02T10:57:48.632Z,11.81
2023-04-02T10:59:16.688Z,11.87
2023-04-02T11:00:30.350Z,11.88
2023-04-02T11:01:41.705Z,11.89
2023-04-02T11:03:11.675Z,11.88
2023-04-02T11:05:51.054Z,11.98
2023-04-02T11:08:29.055Z,11.99
2023-04-02T11:11:10.272Z,12.02
2023-04-02T11:15:21.073Z,12.23
2023-04-02T11:17:38.371Z,12.12
2023-04-02T11:20:59.004Z,12.32
2023-04-02T11:24:03.652Z,12.49
2023-04-02T11:25:28.227Z,12.41
2023-04-02T11:28:47.590Z,12.61
2023-04-02T11:32:28.123Z,12.55
2023-04-02T11:36:54.978Z,12.58
2023-04-02T11:41:10.028Z,12.74
2023-04-02T11:43:44.049Z,12.83
2023-04-02T11:46:21.881Z,12.87
2023-04-02T11:48:47.328Z,12.84
2023-04-02T11:51:27.021Z,12.89
2023-04-02T11:53:58.035Z,12.93
2023-04-02T11:56:44.802Z,12.92
2023-04-02T11:59:40.821Z,12.68
2023-04-02T12:04:36.773Z,12.30
2023-04-02T12:05:57.593Z,12.19
2023-04-02T12:08:57.681Z,12.37
2023-04-02T12:11:37.243Z,12.52
2023-04-02T12:12:46.623Z,12.41
2023-04-02T12:15:29.643Z,12.60
2023-04-02T12:16:39.745Z,12.52
2023-04-02T12:17:48.732Z,12.48
2023-04-02T12:20:24.977Z,12.62
2023-04-02T12:21:34.859Z,12.49
2023-04-02T12:22:50.563Z,12.43
2023-04-02T12:26:43.359Z,12.42
2023-04-02T12:29:36.225Z,12.34
2023-04-02T12:32:05.479Z,12.30
2023-04-02T12:34:34.662Z,12.43
2023-04-02T12:37:03.825Z,12.55
2023-04-02T12:39:56.620Z,12.62
2023-04-02T12:42:29.836Z,12.64
2023-04-02T12:44:55.735Z,12.66
2023-04-02T12:46:07.428Z,12.55
2023-04-02T12:47:18.140Z,12.52
2023-04-02T12:48:28.170Z,12.53
2023-04-02T12:51:00.071Z,12.74
2023-04-02T12:52:12.008Z,12.64
2023-04-02T12:54:54.024Z,12.64
2023-04-02T12:57:27.760Z,12.71
2023-04-02T13:00:07.088Z,12.67
2023-04-02T13:01:24.144Z,12.54
2023-04-02T13:04:03.778Z,12.65
2023-04-02T13:06:32.580Z,12.75
2023-04-02T13:09:02.018Z,12.58
2023-04-02T13:11:42.116Z,12.30
2023-04-02T13:14:19.716Z,11.91
2023-04-02T13:17:59.716Z,11.84
2023-04-02T13:21:30.005Z,11.77
2023-04-02T13:24:48.365Z,12.18
2023-04-02T13:32:21.588Z,12.56
2023-04-02T13:34:47.972Z,12.76
2023-04-02T13:37:31.160Z,12.81
2023-04-02T13:40:04.611Z,12.77
2023-04-02T13:42:38.125Z,12.22
2023-04-02T13:45:02.680Z,12.08
2023-04-02T13:47:34.836Z,11.90
2023-04-02T13:49:58.500Z,11.93
2023-04-02T13:52:26.426Z,11.98
2023-04-02T13:53:37.273Z,11.90
2023-04-02T13:56:07.835Z,12.18
2023-04-02T13:58:33.142Z,12.11
2023-04-02T14:00:58.692Z,12.29
2023-04-02T14:03:32.176Z,12.34
2023-04-02T14:06:12.762Z,12.41
2023-04-02T14:09:06.513Z,12.39
2023-04-02T14:11:43.108Z,12.34
2023-04-02T14:13:06.068Z,12.21
2023-04-02T14:14:33.295Z,12.15
2023-04-02T14:17:32.498Z,11.93
2023-04-02T14:20:19.111Z,11.81
2023-04-02T14:23:02.057Z,11.95
2023-04-02T14:24:23.747Z,11.91
2023-04-02T14:25:43.112Z,12.00
2023-04-02T14:29:09.587Z,12.05
2023-04-02T14:31:59.321Z,12.07
2023-04-02T14:37:02.393Z,11.96
2023-04-02T14:38:20.517Z,11.82
2023-04-02T14:41:21.587Z,11.85
2023-04-02T14:44:21.003Z,12.04
2023-04-02T14:47:04.283Z,12.06
2023-04-02T14:49:54.818Z,12.21
2023-04-02T14:51:43.986Z,12.02
2023-04-02T14:52:58.125Z,11.88
2023-04-02T14:55:46.554Z,12.16
2023-04-02T14:58:39.393Z,11.97
2023-04-02T15:05:48.448Z,12.22
2023-04-02T15:10:00.918Z,12.18
2023-04-02T15:12:45.552Z,12.27
2023-04-02T15:15:36.860Z,12.19
2023-04-02T15:17:54.005Z,11.99
2023-04-02T15:20:21.614Z,12.13
2023-04-02T15:23:28.646Z,12.30
2023-04-02T15:26:27.277Z,12.36
2023-04-02T15:27:56.709Z,12.25
2023-04-02T15:29:27.878Z,12.32
2023-04-02T15:32:31.826Z,12.42
2023-04-02T15:33:44.055Z,12.23
2023-04-02T15:35:11.652Z,12.19
2023-04-02T15:36:36.741Z,12.06
2023-04-02T15:39:33.004Z,11.85
2023-04-02T15:42:32.107Z,11.79
2023-04-02T15:45:13.666Z,11.92
2023-04-02T15:46:26.203Z,11.91
2023-04-02T15:49:30.660Z,12.16
2023-04-02T15:52:17.513Z,12.25
2023-04-02T15:55:22.114Z,12.35
2023-04-02T15:56:45.005Z,12.31
2023-04-02T15:58:15.461Z,12.40
2023-04-02T16:00:50.568Z,12.64
2023-04-02T16:03:50.952Z,12.57
2023-04-02T16:05:04.960Z,12.39
2023-04-02T16:08:09.960Z,12.17
2023-04-02T16:10:43.382Z,11.75
2023-04-02T16:13:27.731Z,11.71
2023-04-02T16:14:38.863Z,11.64
2023-04-02T16:16:14.328Z,11.64
2023-04-02T16:19:16.676Z,11.87
2023-04-02T16:20:29.027Z,11.77
2023-04-02T16:21:41.661Z,11.67
2023-04-02T16:24:27.870Z,11.73
2023-04-02T16:27:34.508Z,11.68
2023-04-02T16:29:03.610Z,11.70
2023-04-02T16:31:59.788Z,11.65
2023-04-02T16:35:41.012Z,11.83
2023-04-02T16:36:43.012Z,11.49
2023-04-02T16:39:41.154Z,11.57
2023-04-02T16:42:34.225Z,11.63
2023-04-02T16:45:37.901Z,11.92
2023-04-02T16:46:53.947Z,11.84
2023-04-02T16:49:49.561Z,11.84
2023-04-02T16:52:36.931Z,11.83
2023-04-02T16:54:07.569Z,11.53
2023-04-02T16:55:24.596Z,11.51
2023-04-02T16:59:34.126Z,11.06
2023-04-02T17:02:35.766Z,10.87
2023-04-02T17:05:32.586Z,10.61
2023-04-02T17:08:19.580Z,10.53
2023-04-02T17:09:43.959Z,10.41
2023-04-02T17:12:21.257Z,10.57
2023-04-02T17:18:00.101Z,10.58
2023-04-02T17:20:31.063Z,10.21
2023-04-02T17:21:47.622Z,10.12
2023-04-02T17:24:19.478Z,10.08
2023-04-02T17:25:31.817Z,10.00
2023-04-02T17:28:00.692Z,10.27
2023-04-02T17:30:35.776Z,10.46
2023-04-02T17:33:04.076Z,10.76
2023-04-02T17:34:13.983Z,10.64
2023-04-02T17:37:14.463Z,11.03
2023-04-02T17:38:41.828Z,10.93
2023-04-02T17:41:50.531Z,10.69
2023-04-02T17:44:59.763Z,10.46
2023-04-02T17:47:56.775Z,10.21
2023-04-02T17:50:48.648Z,10.05
2023-04-02T17:53:59.670Z,9.94
2023-04-02T17:57:09.515Z,9.91
2023-04-02T18:00:17.716Z,10.06
2023-04-02T18:02:55.157Z,10.33
2023-04-02T18:04:16.013Z,10.33
2023-04-02T18:07:06.373Z,10.54
2023-04-02T18:08:37.615Z,10.53
2023-04-02T18:09:59.636Z,10.66
2023-04-02T18:12:41.164Z,10.79
2023-04-02T18:14:02.056Z,10.72
2023-04-02T18:16:58.261Z,10.93
2023-04-02T18:18:17.500Z,10.82
2023-04-02T18:20:56.446Z,10.78
2023-04-02T18:23:56.158Z,10.75
2023-04-02T18:25:09.595Z,10.62
2023-04-02T18:29:25.782Z,10.38
2023-04-02T18:32:12.353Z,10.11
2023-04-02T18:35:00.132Z,9.96
2023-04-02T18:38:20.429Z,10.04
2023-04-02T18:41:08.857Z,10.09
2023-04-02T18:42:31.323Z,10.11
2023-04-02T18:45:45.628Z,10.35
2023-04-02T18:48:24.675Z,10.60
2023-04-02T18:51:00.349Z,10.80
2023-04-02T18:53:30.957Z,10.94
2023-04-02T18:54:44.014Z,10.88
2023-04-02T18:56:06.722Z,10.86
2023-04-02T18:58:51.530Z,10.88
2023-04-02T19:01:32.868Z,10.72
2023-04-02T19:04:11.573Z,10.49
2023-04-02T19:05:36.932Z,10.31
2023-04-02T19:06:59.280Z,10.22
2023-04-02T19:09:40.112Z,9.95
2023-04-02T19:12:18.679Z,9.73
2023-04-02T19:13:28.101Z,9.74
2023-04-02T19:14:38.635Z,9.88
2023-04-02T19:16:08.616Z,10.03
2023-04-02T19:20:29.524Z,10.63
2023-04-02T19:25:14.359Z,10.77
2023-04-02T19:26:28.732Z,10.71
2023-04-02T19:27:54.820Z,10.79
2023-04-02T19:29:25.028Z,10.81
2023-04-02T19:30:56.131Z,10.77
2023-04-02T19:32:17.542Z,10.70
2023-04-02T19:35:30.026Z,10.47
2023-04-02T19:40:01.338Z,10.10
2023-04-02T19:41:29.098Z,9.95
2023-04-02T19:44:03.386Z,10.02
2023-04-02T19:46:38.727Z,10.11
2023-04-02T19:49:20.358Z,10.23
2023-04-02T19:50:30.160Z,10.07
2023-04-02T19:51:38.830Z,10.08
2023-04-02T19:54:03.062Z,10.20
2023-04-02T19:55:12.171Z,10.03
2023-04-02T19:56:23.374Z,9.98
2023-04-02T19:58:48.864Z,9.99
2023-04-02T20:01:12.918Z,9.86
2023-04-02T20:02:22.348Z,9.71
2023-04-02T20:03:33.213Z,9.67
2023-04-02T20:05:59.135Z,9.62
2023-04-02T20:07:07.930Z,9.42
2023-04-02T20:08:17.013Z,9.36
2023-04-02T20:09:25.866Z,9.34
2023-04-02T20:10:35.046Z,9.34
2023-04-02T20:12:59.110Z,9.50
2023-04-02T20:15:22.708Z,9.68
2023-04-02T20:17:49.821Z,9.89
2023-04-02T20:20:20.419Z,10.00
2023-04-02T20:21:32.035Z,9.88
2023-04-02T20:22:40.643Z,9.85
2023-04-02T20:25:09.284Z,9.84
2023-04-02T20:26:18.544Z,9.70
2023-04-02T20:27:29.031Z,9.66
2023-04-02T20:29:53.785Z,9.68
2023-04-02T20:32:23.915Z,9.75
2023-04-02T20:34:49.817Z,9.65
2023-04-02T20:37:36.371Z,9.67
2023-04-02T20:40:01.926Z,9.73
2023-04-02T20:42:27.675Z,9.80
2023-04-02T20:43:40.125Z,9.74
2023-04-02T20:44:49.053Z,9.79
2023-04-02T20:47:21.135Z,10.06
2023-04-02T20:49:49.501Z,9.85
2023-04-02T20:52:17.158Z,9.66
2023-04-02T20:54:46.076Z,9.48
2023-04-02T20:57:24.394Z,9.47
2023-04-02T20:59:51.539Z,9.58
2023-04-02T21:01:19.478Z,9.51
2023-04-02T21:02:28.161Z,9.43
2023-04-02T21:04:56.557Z,9.52
2023-04-02T21:07:23.405Z,9.57
2023-04-02T21:09:47.427Z,9.70
2023-04-02T21:11:05.127Z,9.63
2023-04-02T21:13:36.612Z,9.90
2023-04-02T21:17:21.165Z,10.04
2023-04-02T21:19:46.490Z,10.10
2023-04-02T21:21:01.928Z,10.00
2023-04-02T21:23:26.125Z,10.15
2023-04-02T21:24:35.015Z,9.98
2023-04-02T21:27:00.629Z,9.76
2023-04-02T21:28:10.231Z,9.55
2023-04-02T21:30:34.394Z,9.19
2023-04-02T21:32:59.952Z,9.48
2023-04-02T21:34:11.286Z,9.32
2023-04-02T21:35:21.684Z,9.36
2023-04-02T21:37:52.358Z,9.61
2023-04-02T21:40:21.142Z,9.84
2023-04-02T21:41:33.095Z,9.83
2023-04-02T21:43:59.429Z,10.13
2023-04-02T21:46:28.790Z,10.14
2023-04-02T21:48:56.401Z,10.14
2023-04-02T21:50:07.866Z,9.97
2023-04-02T21:51:20.048Z,9.95
2023-04-02T21:52:29.071Z,9.73
2023-04-02T21:53:39.756Z,9.73
2023-04-02T21:54:49.406Z,9.71
2023-04-02T21:57:18.972Z,9.50
2023-04-02T21:59:42.680Z,9.36
2023-04-02T22:00:52.258Z,9.34
2023-04-02T22:03:25.038Z,9.57
2023-04-02T22:05:45.457Z,9.52
2023-04-02T22:08:09.630Z,9.56
2023-04-02T22:09:22.160Z,9.26
2023-04-02T22:10:32.399Z,9.30
2023-04-02T22:13:00.581Z,9.66
2023-04-02T22:15:25.532Z,9.56
2023-04-02T22:16:37.115Z,9.36
2023-04-02T22:17:45.825Z,9.45
2023-04-02T22:20:36.336Z,9.51
2023-04-02T22:23:02.045Z,9.38
2023-04-02T22:25:29.984Z,9.49
2023-04-02T22:26:41.272Z,9.38
2023-04-02T22:29:08.253Z,9.61
2023-04-02T22:31:34.526Z,9.45
2023-04-02T22:33:59.878Z,9.55
2023-04-02T22:35:10.465Z,9.46
2023-04-02T22:36:22.393Z,9.54
2023-04-02T22:38:49.878Z,9.76
2023-04-02T22:41:19.983Z,9.72
2023-04-02T22:43:45.724Z,9.85
2023-04-02T22:46:13.141Z,9.94
2023-04-02T22:47:23.058Z,9.73
2023-04-02T22:48:32.505Z,9.82
2023-04-02T22:49:41.712Z,9.72
2023-04-02T22:52:08.534Z,9.90
2023-04-02T22:54:33.788Z,9.81
2023-04-02T22:56:58.236Z,9.97
2023-04-02T22:58:08.336Z,9.71
2023-04-02T23:00:33.632Z,9.80
2023-04-02T23:02:59.314Z,9.75
2023-04-02T23:04:10.184Z,9.73
2023-04-02T23:05:19.125Z,9.72
2023-04-02T23:07:45.070Z,9.97
2023-04-02T23:10:11.688Z,10.09
2023-04-02T23:12:42.232Z,9.94
2023-04-02T23:13:52.191Z,9.91
2023-04-02T23:16:18.918Z,9.92
2023-04-02T23:17:30.178Z,9.81
2023-04-02T23:19:58.544Z,9.95
2023-04-02T23:22:24.418Z,9.93
2023-04-02T23:23:34.953Z,9.87
2023-04-02T23:24:44.545Z,9.86
2023-04-02T23:27:34.481Z,10.06
2023-04-02T23:30:01.461Z,10.13
2023-04-02T23:32:34.502Z,10.12
2023-04-02T23:35:01.491Z,10.34
2023-04-02T23:36:23.421Z,10.29
2023-04-02T23:37:33.049Z,10.25
2023-04-02T23:39:56.938Z,9.78
2023-04-02T23:42:21.571Z,9.77
2023-04-02T23:43:31.457Z,9.72
2023-04-02T23:44:40.591Z,9.84
2023-04-02T23:47:05.523Z,10.00
2023-04-02T23:49:30.236Z,9.85
2023-04-02T23:51:55.216Z,9.98
2023-04-02T23:53:04.454Z,9.89
2023-04-02T23:55:31.141Z,9.91
2023-04-02T23:57:56.924Z,9.87
